Terminal Aerodrome Forecast
Issued by NWS

Home | Current Version | Previous Version | Text Only | Print | Product List | Glossary On
Versions: 1 2 3 4 5 6 7 8 9 10 11 12 13 14 15
000
FTUS43 KEAX 261731
TAFSTJ
TAF
KSTJ 261731Z 2618/2718 14009KT P6SM VCTS SCT025CB BKN100
     FM261900 14008KT 5SM -TSRA BKN040CB
      TEMPO 2622/2702 VRB20G35KT 2SM TSRA BR BKN025CB
     FM270800 16010KT P6SM OVC012=

USA.gov is the U.S. government's official web portal to all federal, state and local government web resources and services.